Time;durP1;ratioP1;P1;durP2;ratioP2;P2;SDS_P1;SDS_P2;PMS_P1;PMS_P2;Temp;Humidity;BMP_temperature;BMP_pressure;BME280_temperature;BME280_humidity;BME280_pressure;Samples;Min_cycle;Max_cycle;Signal;HPM_P1;HPM_P2
2022/09/22 00:01:27;;;;;;;11.30;7.73;;;;;;;8.99;100.00;94901.09;5141378;27;20286;-75
2022/09/22 00:03:58;;;;;;;12.60;7.80;;;;;;;9.05;100.00;94900.31;5137666;27;20200;-73
2022/09/22 00:06:26;;;;;;;9.40;7.97;;;;;;;9.07;100.00;94890.53;5136484;27;20211;-74
2022/09/22 00:08:59;;;;;;;9.27;7.43;;;;;;;8.82;100.00;94898.16;5132386;27;20212;-74
2022/09/22 00:11:28;;;;;;;9.80;7.80;;;;;;;8.53;100.00;94898.56;5138405;27;20206;-74
2022/09/22 00:13:57;;;;;;;10.67;7.30;;;;;;;8.41;100.00;94895.75;5130883;27;20195;-75
2022/09/22 00:16:26;;;;;;;9.33;6.77;;;;;;;8.49;100.00;94892.97;5139912;27;20199;-75
2022/09/22 00:18:53;;;;;;;8.60;7.00;;;;;;;8.53;100.00;94896.75;5132396;27;20689;-73
2022/09/22 00:21:22;;;;;;;10.13;7.70;;;;;;;8.60;100.00;94896.75;5137226;27;20203;-74
2022/09/22 00:23:51;;;;;;;8.80;7.23;;;;;;;8.57;100.00;94895.34;5137154;27;20214;-74
2022/09/22 00:26:21;;;;;;;8.03;6.80;;;;;;;8.61;100.00;94882.81;5134717;27;20234;-74
2022/09/22 00:28:51;;;;;;;8.40;7.03;;;;;;;8.61;100.00;94887.97;5136121;27;20244;-74
2022/09/22 00:31:20;;;;;;;9.07;7.40;;;;;;;8.63;100.00;94896.34;5137968;27;20216;-74
2022/09/22 00:33:47;;;;;;;11.63;7.20;;;;;;;8.66;100.00;94890.00;5131898;27;20215;-74
2022/09/22 00:36:16;;;;;;;8.53;6.93;;;;;;;8.70;100.00;94886.00;5141492;27;20202;-74
2022/09/22 00:38:43;;;;;;;9.77;6.20;;;;;;;8.72;100.00;94895.16;5134186;27;20195;-74
2022/09/22 00:41:17;;;;;;;9.83;6.60;;;;;;;8.64;100.00;94897.94;5131308;27;20654;-74
2022/09/22 00:43:49;;;;;;;7.57;6.50;;;;;;;8.61;100.00;94887.97;5131852;27;20198;-74
2022/09/22 00:46:21;;;;;;;8.83;6.27;;;;;;;8.57;100.00;94898.97;5139915;27;20218;-74
2022/09/22 00:48:51;;;;;;;7.23;6.23;;;;;;;8.57;100.00;94894.56;5133056;27;20218;-74
2022/09/22 00:51:22;;;;;;;7.10;6.20;;;;;;;8.61;100.00;94910.50;5137652;27;20590;-73
2022/09/22 00:53:50;;;;;;;9.20;6.93;;;;;;;8.61;100.00;94900.94;5136741;27;21244;-74
2022/09/22 00:56:21;;;;;;;7.50;6.30;;;;;;;8.65;100.00;94893.56;5129275;27;20207;-74
2022/09/22 00:58:52;;;;;;;8.47;6.67;;;;;;;8.67;100.00;94894.16;5132074;27;20211;-73
2022/09/22 01:01:19;;;;;;;7.90;6.80;;;;;;;8.63;100.00;94890.38;5134342;27;20210;-74
2022/09/22 01:03:46;;;;;;;8.93;6.70;;;;;;;8.67;100.00;94889.78;5134598;27;20203;-75
2022/09/22 01:06:17;;;;;;;8.43;7.10;;;;;;;8.77;100.00;94876.44;5131060;27;20223;-74
2022/09/22 01:08:45;;;;;;;8.93;6.93;;;;;;;8.80;100.00;94876.03;5133026;27;20195;-75
2022/09/22 01:11:14;;;;;;;8.77;6.30;;;;;;;8.77;100.00;94879.81;5130715;27;20195;-75
2022/09/22 01:13:52;;;;;;;8.33;7.00;;;;;;;8.77;100.00;94882.41;5134318;27;20251;-74
2022/09/22 01:16:34;;;;;;;7.93;6.77;;;;;;;8.73;100.00;94883.00;5134620;27;20199;-74
2022/09/22 01:19:35;;;;;;;11.77;6.97;;;;;;;8.71;100.00;94877.22;5130814;27;20203;-75
2022/09/22 01:22:18;;;;;;;7.83;6.63;;;;;;;8.73;100.00;94875.22;5138805;27;20213;-74
2022/09/22 01:24:51;;;;;;;8.73;6.90;;;;;;;8.70;100.00;94873.84;5136428;27;20200;-74
2022/09/22 01:27:34;;;;;;;10.33;7.00;;;;;;;8.31;100.00;94871.25;5135767;27;20235;-73
2022/09/22 01:30:34;;;;;;;8.33;6.60;;;;;;;8.08;100.00;94875.97;5131491;27;20196;-74
2022/09/22 01:33:15;;;;;;;8.73;6.73;;;;;;;8.19;100.00;94876.19;5069440;27;20207;-74
2022/09/22 01:35:52;;;;;;;7.80;6.87;;;;;;;8.33;100.00;94874.44;5133897;27;20311;-74
2022/09/22 01:38:30;;;;;;;8.33;7.27;;;;;;;8.36;100.00;94866.28;5133966;27;20203;-74
2022/09/22 01:41:02;;;;;;;8.70;7.20;;;;;;;8.41;100.00;94863.88;5134907;27;20207;-74
2022/09/22 01:43:37;;;;;;;7.63;6.50;;;;;;;8.43;100.00;94860.09;5127942;27;20230;-75
2022/09/22 01:46:11;;;;;;;8.70;6.67;;;;;;;8.45;100.00;94863.28;5138236;27;20221;-74
2022/09/22 01:48:43;;;;;;;7.37;6.37;;;;;;;8.47;100.00;94869.06;5131498;27;20268;-74
2022/09/22 01:51:15;;;;;;;9.13;7.10;;;;;;;8.44;100.00;94866.88;5132682;27;20210;-74
2022/09/22 01:53:46;;;;;;;10.57;7.27;;;;;;;8.48;100.00;94872.47;5093064;28;20207;-74
2022/09/22 01:56:15;;;;;;;10.30;7.00;;;;;;;8.43;100.00;94865.28;5093784;28;20204;-74
2022/09/22 01:58:47;;;;;;;8.70;6.80;;;;;;;8.45;100.00;94865.09;5093546;28;20199;-74
2022/09/22 02:01:19;;;;;;;9.80;6.80;;;;;;;8.42;100.00;94870.66;5098481;28;20937;-74
2022/09/22 02:03:51;;;;;;;8.03;6.47;;;;;;;8.37;100.00;94866.06;5092767;28;20213;-74
2022/09/22 02:06:23;;;;;;;8.20;6.63;;;;;;;8.41;100.00;94871.66;5091524;28;20236;-74
2022/09/22 02:08:55;;;;;;;7.80;6.40;;;;;;;8.41;100.00;94869.06;5091043;28;20883;-74
2022/09/22 02:11:23;;;;;;;7.97;6.47;;;;;;;8.40;100.00;94867.44;5091941;28;20204;-74
2022/09/22 02:13:50;;;;;;;8.37;6.30;;;;;;;8.50;100.00;94871.25;5092864;28;21630;-75
2022/09/22 02:16:22;;;;;;;7.33;6.37;;;;;;;8.55;100.00;94862.88;5094370;28;20208;-75
2022/09/22 02:18:51;;;;;;;7.07;6.23;;;;;;;8.57;100.00;94865.28;5087244;28;20565;-74
2022/09/22 02:21:19;;;;;;;8.20;6.63;;;;;;;8.55;100.00;94861.09;5090545;28;20208;-75
2022/09/22 02:23:47;;;;;;;7.97;6.30;;;;;;;8.49;100.00;94869.66;5091653;28;20212;-74
2022/09/22 02:26:22;;;;;;;8.60;6.90;;;;;;;8.39;100.00;94869.28;5091605;28;20223;-74
2022/09/22 02:28:52;;;;;;;9.53;6.97;;;;;;;8.37;100.00;94867.84;5091369;28;20211;-76
2022/09/22 02:31:21;;;;;;;8.47;7.00;;;;;;;8.30;100.00;94862.69;5093805;28;20573;-74
2022/09/22 02:33:49;;;;;;;8.30;7.33;;;;;;;8.28;100.00;94863.88;5092409;28;20328;-73
2022/09/22 02:36:31;;;;;;;8.97;7.40;;;;;;;8.23;100.00;94854.06;5092168;28;20204;-74
2022/09/22 02:39:05;;;;;;;10.73;7.83;;;;;;;8.07;100.00;94853.66;5090434;28;20291;-74
2022/09/22 02:41:42;;;;;;;9.57;8.00;;;;;;;7.82;100.00;94858.63;5089851;28;20204;-75
2022/09/22 02:44:16;;;;;;;10.93;8.40;;;;;;;7.60;100.00;94857.94;5087482;28;20192;-74
2022/09/22 02:46:49;;;;;;;11.43;8.03;;;;;;;7.65;100.00;94862.50;5091981;28;20220;-74
2022/09/22 02:49:19;;;;;;;13.57;8.93;;;;;;;7.62;100.00;94853.38;5091998;28;20203;-74
2022/09/22 02:51:48;;;;;;;12.00;8.80;;;;;;;7.82;100.00;94863.78;5099501;27;20238;-74
2022/09/22 02:54:15;;;;;;;11.53;9.47;;;;;;;7.85;100.00;94871.16;5130740;27;20206;-74
2022/09/22 02:56:42;;;;;;;12.90;9.30;;;;;;;7.84;100.00;94874.72;5130444;27;20203;-74
2022/09/22 02:59:09;;;;;;;12.00;8.60;;;;;;;7.86;100.00;94873.53;5134818;27;20221;-73
2022/09/22 03:01:36;;;;;;;12.50;9.37;;;;;;;7.86;100.00;94873.53;5135041;27;20643;-74
2022/09/22 03:04:05;;;;;;;11.97;9.50;;;;;;;7.86;100.00;94872.72;5134842;27;20195;-76
2022/09/22 03:06:32;;;;;;;13.23;9.60;;;;;;;7.83;100.00;94873.13;5133219;27;20246;-74
2022/09/22 03:08:59;;;;;;;13.10;9.40;;;;;;;7.78;100.00;94873.72;5135965;27;20202;-74
2022/09/22 03:11:27;;;;;;;11.57;9.33;;;;;;;7.86;100.00;94872.72;5127492;27;20199;-74
2022/09/22 03:13:54;;;;;;;13.67;10.67;;;;;;;7.87;100.00;94872.56;5130627;27;20302;-74
2022/09/22 03:16:20;;;;;;;12.37;10.00;;;;;;;7.97;100.00;94879.91;5131718;27;20206;-74
2022/09/22 03:18:47;;;;;;;10.80;9.43;;;;;;;8.02;100.00;94876.75;5135185;27;20207;-75
2022/09/22 03:21:16;;;;;;;12.70;9.80;;;;;;;8.12;100.00;94877.97;5138476;27;20196;-74
2022/09/22 03:23:42;;;;;;;11.73;9.83;;;;;;;8.13;100.00;94881.34;5134256;27;20665;-74
2022/09/22 03:26:09;;;;;;;13.33;10.53;;;;;;;8.13;100.00;94878.75;5135740;27;20202;-75
2022/09/22 03:28:36;;;;;;;12.97;10.00;;;;;;;8.12;100.00;94885.72;5136085;27;20206;-74
2022/09/22 03:31:03;;;;;;;14.93;10.43;;;;;;;8.13;100.00;94887.34;5137298;27;20221;-73
2022/09/22 03:33:30;;;;;;;12.77;10.10;;;;;;;8.20;100.00;94880.34;5138054;27;20206;-74
2022/09/22 03:35:57;;;;;;;11.67;9.60;;;;;;;8.20;100.00;94877.75;5135420;27;20590;-74
2022/09/22 03:38:25;;;;;;;13.80;10.13;;;;;;;8.20;100.00;94880.34;5136225;27;20283;-74
2022/09/22 03:40:54;;;;;;;13.87;9.67;;;;;;;8.21;100.00;94881.16;5135958;27;20219;-75
2022/09/22 03:43:21;;;;;;;13.43;10.20;;;;;;;8.24;100.00;94876.38;5137124;27;20199;-75
2022/09/22 03:45:48;;;;;;;10.80;8.87;;;;;;;8.27;100.00;94880.38;5134019;27;20215;-74
2022/09/22 03:48:15;;;;;;;11.70;9.20;;;;;;;8.28;100.00;94877.59;5136711;27;20218;-74
2022/09/22 03:50:41;;;;;;;12.33;9.30;;;;;;;8.36;100.00;94871.44;5136846;27;20206;-74
2022/09/22 03:53:08;;;;;;;14.07;9.20;;;;;;;8.39;100.00;94873.66;5135767;27;21028;-75
2022/09/22 03:55:36;;;;;;;12.10;9.53;;;;;;;8.36;100.00;94881.81;5134291;27;20203;-73
2022/09/22 03:58:03;;;;;;;12.63;10.13;;;;;;;8.17;100.00;94878.16;5131312;27;20191;-74
2022/09/22 04:00:30;;;;;;;16.37;12.50;;;;;;;8.04;100.00;94880.75;5128119;27;20248;-71
2022/09/22 04:02:57;;;;;;;16.60;10.87;;;;;;;8.09;100.00;94877.56;5135285;27;20646;-71
2022/09/22 04:05:24;;;;;;;13.33;10.30;;;;;;;8.16;100.00;94888.72;5138470;27;20203;-71
2022/09/22 04:07:51;;;;;;;11.97;9.27;;;;;;;8.25;100.00;94883.16;5135023;27;20238;-71
2022/09/22 04:10:18;;;;;;;13.43;9.80;;;;;;;8.35;100.00;94885.38;5132909;27;20230;-71
2022/09/22 04:12:47;;;;;;;13.00;9.23;;;;;;;8.33;100.00;94887.38;5134975;27;20226;-72
2022/09/22 04:15:14;;;;;;;13.53;10.50;;;;;;;8.35;100.00;94887.97;5137422;27;20202;-72
2022/09/22 04:17:40;;;;;;;13.23;9.90;;;;;;;8.37;100.00;94888.56;5134278;27;20199;-72
2022/09/22 04:20:10;;;;;;;12.93;9.83;;;;;;;8.46;100.00;94889.97;5130535;27;20202;-71
2022/09/22 04:22:37;;;;;;;14.00;10.97;;;;;;;8.43;100.00;94873.03;5134999;27;20294;-72
2022/09/22 04:25:04;;;;;;;13.43;10.20;;;;;;;8.56;100.00;94895.56;5135909;27;20214;-72
2022/09/22 04:27:31;;;;;;;14.03;11.13;;;;;;;8.57;100.00;94885.00;5136546;27;20230;-72
2022/09/22 04:30:00;;;;;;;15.63;11.70;;;;;;;8.55;100.00;94887.00;5133511;27;20203;-71
2022/09/22 04:32:27;;;;;;;20.40;15.13;;;;;;;8.57;100.00;94882.41;5127226;27;20302;-72
2022/09/22 04:34:53;;;;;;;15.10;11.93;;;;;;;8.66;100.00;94884.81;5133295;27;20214;-73
2022/09/22 04:37:20;;;;;;;18.73;13.33;;;;;;;8.74;100.00;94882.81;5133645;27;20207;-72
2022/09/22 04:39:47;;;;;;;16.67;13.03;;;;;;;8.77;100.00;94890.19;5134872;27;20231;-71
2022/09/22 04:42:14;;;;;;;17.47;11.63;;;;;;;8.85;100.00;94889.97;5134840;27;20559;-70
2022/09/22 04:44:41;;;;;;;14.07;10.80;;;;;;;8.79;100.00;94887.38;5136189;27;20556;-73
2022/09/22 04:47:09;;;;;;;15.20;11.77;;;;;;;8.80;100.00;94894.94;5132865;27;20933;-73
2022/09/22 04:49:36;;;;;;;17.80;13.27;;;;;;;8.88;100.00;94891.38;5136256;27;20650;-72
2022/09/22 04:52:03;;;;;;;17.57;13.23;;;;;;;8.93;100.00;94891.53;5135074;27;20234;-72
2022/09/22 04:54:30;;;;;;;15.77;12.30;;;;;;;8.98;100.00;94889.13;5137513;27;20592;-72
2022/09/22 04:56:57;;;;;;;16.20;12.70;;;;;;;8.99;100.00;94898.53;5137109;27;20654;-73
2022/09/22 04:59:24;;;;;;;17.50;12.93;;;;;;;9.11;100.00;94882.16;5136482;27;20209;-74
2022/09/22 05:01:51;;;;;;;17.17;13.23;;;;;;;9.07;100.00;94880.97;5133224;27;20356;-71
2022/09/22 05:04:19;;;;;;;13.93;10.87;;;;;;;8.80;100.00;94887.16;5133397;27;20208;-74
2022/09/22 05:06:46;;;;;;;13.60;10.73;;;;;;;8.49;100.00;94894.75;5134322;27;20205;-75
2022/09/22 05:09:14;;;;;;;14.67;11.23;;;;;;;8.55;100.00;94891.38;5136367;27;20206;-74
2022/09/22 05:11:41;;;;;;;19.03;12.10;;;;;;;8.61;100.00;94895.75;5131892;27;20740;-73
2022/09/22 05:14:11;;;;;;;16.20;11.80;;;;;;;8.73;100.00;94891.56;5130437;27;20195;-74
2022/09/22 05:16:38;;;;;;;16.73;12.47;;;;;;;8.86;100.00;94894.13;5133047;27;20225;-73
2022/09/22 05:19:05;;;;;;;16.63;11.27;;;;;;;8.98;100.00;94894.31;5132334;27;20269;-73
2022/09/22 05:21:33;;;;;;;17.83;12.40;;;;;;;9.10;100.00;94896.09;5127356;27;20782;-72
2022/09/22 05:24:01;;;;;;;18.87;15.17;;;;;;;9.07;100.00;94891.31;5132601;27;20543;-72
2022/09/22 05:26:29;;;;;;;21.90;15.07;;;;;;;9.12;100.00;94890.69;5131128;27;20204;-71
2022/09/22 05:28:56;;;;;;;17.17;12.03;;;;;;;9.21;100.00;94891.28;5134914;27;20226;-70
2022/09/22 05:31:24;;;;;;;16.77;10.77;;;;;;;9.14;100.00;94891.31;5133833;27;20215;-70
2022/09/22 05:33:51;;;;;;;14.93;11.30;;;;;;;9.16;100.00;94901.47;5134639;27;20683;-71
2022/09/22 05:36:17;;;;;;;13.80;10.83;;;;;;;9.21;100.00;94896.47;5134804;27;20208;-71
2022/09/22 05:38:46;;;;;;;15.03;11.40;;;;;;;9.20;100.00;94900.09;5132493;27;20195;-72
2022/09/22 05:41:12;;;;;;;17.63;12.33;;;;;;;9.27;100.00;94899.06;5130007;27;20203;-71
2022/09/22 05:43:39;;;;;;;18.37;11.87;;;;;;;9.32;100.00;94904.41;5132977;27;20657;-72
2022/09/22 05:46:06;;;;;;;14.67;10.90;;;;;;;9.35;100.00;94900.66;5134082;27;20207;-70
2022/09/22 05:48:33;;;;;;;17.50;11.57;;;;;;;9.39;100.00;94901.81;5134401;27;20223;-71
2022/09/22 05:51:09;;;;;;;12.63;9.80;;;;;;;9.28;100.00;94900.66;5132186;27;20206;-72
2022/09/22 05:53:37;;;;;;;13.97;9.97;;;;;;;9.24;100.00;94898.66;5130912;27;20246;-72
2022/09/22 05:56:05;;;;;;;16.50;9.33;;;;;;;9.25;100.00;94897.66;5129167;27;20195;-72
2022/09/22 05:58:35;;;;;;;13.70;10.00;;;;;;;9.28;100.00;94900.66;5131284;27;20191;-70
2022/09/22 06:01:03;;;;;;;11.43;9.07;;;;;;;9.25;100.00;94903.66;5130691;27;20716;-73
2022/09/22 06:03:30;;;;;;;12.77;9.87;;;;;;;9.29;100.00;94910.03;5130934;27;20219;-72
2022/09/22 06:05:59;;;;;;;16.13;10.00;;;;;;;9.30;100.00;94903.84;5132068;27;20199;-71
2022/09/22 06:08:25;;;;;;;15.30;9.57;;;;;;;9.37;100.00;94898.63;5129397;27;20211;-71
2022/09/22 06:10:53;;;;;;;12.80;9.23;;;;;;;9.25;100.00;94898.47;5129135;27;20199;-71
2022/09/22 06:13:21;;;;;;;11.23;9.07;;;;;;;9.13;100.00;94895.69;5128611;27;20350;-71
2022/09/22 06:15:48;;;;;;;12.10;9.13;;;;;;;9.19;100.00;94906.25;5127524;27;20210;-71
2022/09/22 06:18:17;;;;;;;14.90;10.27;;;;;;;9.36;100.00;94904.81;5130930;27;20632;-72
2022/09/22 06:20:46;;;;;;;12.17;9.30;;;;;;;9.44;100.00;94900.19;5131881;27;20191;-71
2022/09/22 06:23:14;;;;;;;10.27;8.33;;;;;;;9.58;100.00;94909.53;5132320;27;20199;-71
2022/09/22 06:25:41;;;;;;;10.57;8.50;;;;;;;9.63;100.00;94904.53;5131869;27;20256;-74
2022/09/22 06:28:13;;;;;;;10.13;8.40;;;;;;;9.51;100.00;94915.75;5128178;27;20595;-71
2022/09/22 06:30:43;;;;;;;11.17;8.43;;;;;;;9.49;100.00;94899.59;5129431;27;20247;-75
2022/09/22 06:33:11;;;;;;;12.63;8.70;;;;;;;9.60;100.00;94910.13;5130542;27;20217;-74
2022/09/22 06:35:41;;;;;;;10.23;8.43;;;;;;;9.48;100.00;94905.78;5129024;27;20191;-74
2022/09/22 06:38:13;;;;;;;10.83;8.17;;;;;;;9.41;100.00;94905.78;5130027;27;20195;-74
2022/09/22 06:40:41;;;;;;;9.43;7.37;;;;;;;9.42;100.00;94906.59;5131117;27;20218;-75
2022/09/22 06:43:19;;;;;;;10.13;7.90;;;;;;;9.55;100.00;94907.34;5132053;27;20202;-75
2022/09/22 06:45:47;;;;;;;11.00;7.97;;;;;;;9.69;100.00;94914.09;5129108;27;20301;-75
2022/09/22 06:48:14;;;;;;;10.93;8.40;;;;;;;9.82;100.00;94915.03;5127534;27;20585;-75
2022/09/22 06:50:41;;;;;;;10.37;8.37;;;;;;;9.82;100.00;94913.22;5132099;27;20221;-75
2022/09/22 06:53:11;;;;;;;12.47;8.13;;;;;;;9.92;100.00;94913.59;5133023;27;20227;-74
2022/09/22 06:55:40;;;;;;;10.90;8.23;;;;;;;9.99;100.00;94910.94;5130643;27;20203;-76
2022/09/22 06:58:07;;;;;;;10.90;8.33;;;;;;;10.14;100.00;94903.72;5129974;27;20237;-75
2022/09/22 07:00:34;;;;;;;12.40;8.40;;;;;;;10.21;100.00;94913.09;5131085;27;20611;-75
2022/09/22 07:03:07;;;;;;;12.97;8.10;;;;;;;10.24;100.00;94907.44;5129205;27;20195;-73
2022/09/22 07:05:35;;;;;;;10.97;8.30;;;;;;;10.14;100.00;94914.09;5131384;27;20239;-76
2022/09/22 07:08:03;;;;;;;12.03;8.70;;;;;;;10.05;100.00;94912.72;5131997;27;20230;-74
2022/09/22 07:10:30;;;;;;;12.13;8.47;;;;;;;9.87;100.00;94918.59;5138372;27;20198;-78
2022/09/22 07:13:00;;;;;;;17.83;9.23;;;;;;;9.94;100.00;94921.16;5131987;27;20211;-76
2022/09/22 07:15:28;;;;;;;11.63;8.83;;;;;;;10.08;100.00;94912.31;5132206;27;20199;-73
2022/09/22 07:17:54;;;;;;;12.70;8.63;;;;;;;10.27;100.00;94915.84;5132805;27;20210;-74
2022/09/22 07:20:23;;;;;;;11.33;8.63;;;;;;;10.47;100.00;94908.72;5124846;27;20837;-74
2022/09/22 07:22:50;;;;;;;10.77;8.70;;;;;;;10.57;100.00;94916.81;5134587;27;20314;-75
2022/09/22 07:25:17;;;;;;;10.53;8.57;;;;;;;10.65;99.84;94912.16;5130930;27;20895;-76
2022/09/22 07:27:44;;;;;;;12.53;8.23;;;;;;;10.74;99.92;94913.50;5129925;27;20284;-75
2022/09/22 07:30:12;;;;;;;13.73;8.13;;;;;;;10.95;99.37;94907.13;5129355;27;20567;-74
2022/09/22 07:32:41;;;;;;;12.00;8.23;;;;;;;11.06;98.69;94916.81;5121898;28;20187;-74
2022/09/22 07:35:09;;;;;;;11.13;7.93;;;;;;;11.15;98.33;94909.53;5127118;27;20202;-75
2022/09/22 07:37:40;;;;;;;10.20;7.90;;;;;;;11.27;96.74;94913.81;5131179;27;20191;-75
2022/09/22 07:40:07;;;;;;;9.57;7.20;;;;;;;11.14;94.80;94908.72;5128637;27;20269;-74
2022/09/22 07:42:34;;;;;;;9.67;7.67;;;;;;;10.86;97.06;94910.19;5130343;27;20654;-74
2022/09/22 07:45:14;;;;;;;11.83;8.27;;;;;;;10.90;97.75;94906.97;5131280;27;20191;-75
2022/09/22 07:50:29;;;;;;;8.03;6.67;;;;;;;11.21;95.59;94914.69;5129442;27;20331;-75
2022/09/22 07:52:57;;;;;;;10.87;6.40;;;;;;;11.42;93.42;94908.28;5132627;27;20227;-75
2022/09/22 07:55:28;;;;;;;9.07;6.43;;;;;;;11.42;92.76;94905.66;5130445;27;20317;-74
2022/09/22 07:57:56;;;;;;;8.30;6.17;;;;;;;11.40;90.93;94912.88;5131592;27;20195;-75
2022/09/22 08:00:23;;;;;;;10.50;5.73;;;;;;;11.29;90.66;94916.19;5131516;27;20570;-75
2022/09/22 08:02:53;;;;;;;7.53;5.83;;;;;;;11.26;90.60;94912.22;5136706;27;20214;-74
2022/09/22 08:05:20;;;;;;;8.83;5.57;;;;;;;11.21;91.65;94906.09;5139943;27;20216;-74
2022/09/22 08:07:47;;;;;;;6.87;5.60;;;;;;;11.43;89.63;94902.03;5132809;27;20207;-74
2022/09/22 08:10:15;;;;;;;9.23;6.00;;;;;;;11.62;90.31;94903.66;5140311;27;20207;-74
2022/09/22 08:12:42;;;;;;;10.30;5.80;;;;;;;11.61;89.59;94916.88;5133796;27;20737;-74
2022/09/22 08:15:11;;;;;;;9.80;5.40;;;;;;;11.45;90.17;94907.84;5133118;27;20211;-74
2022/09/22 08:17:38;;;;;;;6.23;5.30;;;;;;;11.40;89.80;94903.28;5132095;27;20205;-75
2022/09/22 08:20:08;;;;;;;7.10;5.20;;;;;;;11.33;89.46;94905.16;5133605;27;20203;-74
2022/09/22 08:22:35;;;;;;;9.63;5.17;;;;;;;11.38;89.58;94907.09;5138557;27;20230;-74
2022/09/22 08:25:02;;;;;;;7.50;5.60;;;;;;;11.40;89.18;94905.88;5135414;27;20590;-74
2022/09/22 08:27:30;;;;;;;7.27;5.50;;;;;;;11.45;90.29;94899.22;5134248;27;20195;-75
2022/09/22 08:29:57;;;;;;;7.60;5.07;;;;;;;11.64;87.27;94903.41;5138610;27;20225;-75
2022/09/22 08:32:25;;;;;;;6.00;4.80;;;;;;;11.76;85.31;94886.88;5135907;27;20199;-76
2022/09/22 08:34:56;;;;;;;8.27;4.93;;;;;;;11.94;84.21;94892.06;5133771;27;20728;-76
2022/09/22 08:37:27;;;;;;;5.53;4.17;;;;;;;12.19;84.01;94891.13;5136615;27;20234;-73
2022/09/22 08:39:54;;;;;;;4.50;3.40;;;;;;;12.42;79.83;94897.22;5131937;27;20290;-75
2022/09/22 08:42:23;;;;;;;4.23;3.43;;;;;;;12.30;79.35;94896.38;5137409;27;20239;-74
2022/09/22 08:44:58;;;;;;;5.80;4.10;;;;;;;12.28;80.81;94893.22;5135495;27;20214;-74
2022/09/22 08:53:15;;;;;;;5.63;3.83;;;;;;;13.14;79.86;94884.84;5140461;27;20295;-74
2022/09/22 08:55:47;;;;;;;6.60;4.50;;;;;;;13.39;78.56;94882.78;5133589;27;20194;-74
2022/09/22 08:58:31;;;;;;;5.57;3.73;;;;;;;13.42;76.63;94889.38;5132809;27;20203;-73
2022/09/22 09:01:13;;;;;;;4.27;3.70;;;;;;;13.55;75.40;94882.09;5133185;27;20979;-74
2022/09/22 09:03:56;;;;;;;4.90;3.50;;;;;;;13.45;75.79;94884.47;5133371;27;20203;-73
2022/09/22 09:06:34;;;;;;;3.50;3.20;;;;;;;13.30;76.23;94881.56;5135961;27;20689;-74
2022/09/22 09:09:34;;;;;;;3.93;3.27;;;;;;;13.48;75.67;94884.00;5132447;27;20207;-74
2022/09/22 09:12:13;;;;;;;3.80;3.37;;;;;;;13.84;74.33;94882.91;5133660;27;20204;-74
2022/09/22 09:15:05;;;;;;;4.67;3.57;;;;;;;14.32;73.38;94869.44;5135422;27;20192;-75
2022/09/22 09:17:37;;;;;;;7.23;3.30;;;;;;;14.77;71.40;94870.19;5130405;27;20206;-74
2022/09/22 09:20:16;;;;;;;3.57;2.80;;;;;;;15.12;67.77;94875.16;5133278;27;20195;-74
2022/09/22 09:22:49;;;;;;;6.20;3.93;;;;;;;14.99;68.08;94872.88;5138025;27;20653;-77
2022/09/22 09:25:22;;;;;;;6.13;2.80;;;;;;;15.01;67.55;94870.00;5133712;27;20668;-79
2022/09/22 09:27:55;;;;;;;5.30;2.53;;;;;;;15.27;65.53;94867.53;5135798;27;20195;-75
2022/09/22 09:30:23;;;;;;;4.37;2.20;;;;;;;15.15;66.13;94869.44;5134603;27;20213;-74
2022/09/22 09:32:55;;;;;;;3.57;2.63;;;;;;;15.39;65.65;94871.84;5138064;27;20214;-73
2022/09/22 09:35:25;;;;;;;3.50;2.80;;;;;;;15.76;65.87;94865.81;5133210;27;20199;-74
2022/09/22 09:37:57;;;;;;;5.30;2.80;;;;;;;16.33;65.38;94868.00;5135030;27;20214;-72
2022/09/22 09:40:26;;;;;;;2.40;2.20;;;;;;;16.59;63.47;94866.44;5135968;27;20211;-71
2022/09/22 09:42:57;;;;;;;2.93;2.10;;;;;;;17.03;61.29;94860.75;5135364;27;20593;-71
2022/09/22 09:45:31;;;;;;;3.10;2.80;;;;;;;17.47;59.47;94857.84;5132440;27;20286;-72
2022/09/22 09:48:16;;;;;;;3.63;2.70;;;;;;;17.27;60.25;94857.75;5129960;27;20252;-71
2022/09/22 09:50:43;;;;;;;5.33;2.63;;;;;;;17.03;60.53;94867.81;5136912;27;20203;-72
2022/09/22 09:53:27;;;;;;;5.30;2.50;;;;;;;16.71;61.17;94867.06;5137148;27;20322;-72
2022/09/22 09:55:54;;;;;;;2.60;2.40;;;;;;;15.91;62.55;94862.59;5134417;27;20685;-72
2022/09/22 10:01:03;;;;;;;3.87;2.60;;;;;;;14.80;66.46;94858.47;5130907;27;20202;-72
2022/09/22 10:03:34;;;;;;;3.57;2.63;;;;;;;14.42;67.82;94847.91;5133614;27;20650;-72
2022/09/22 10:06:06;;;;;;;2.97;2.67;;;;;;;14.36;67.97;94860.09;5133672;27;20207;-72
2022/09/22 10:08:42;;;;;;;5.90;3.30;;;;;;;13.98;68.76;94844.22;5134456;27;20288;-71
2022/09/22 10:11:11;;;;;;;3.30;2.63;;;;;;;13.78;69.61;94852.50;5131723;27;20725;-72
2022/09/22 10:13:40;;;;;;;4.53;3.47;;;;;;;14.38;68.19;94844.16;5135338;27;20214;-71
2022/09/22 10:16:20;;;;;;;6.73;3.77;;;;;;;15.27;64.53;94849.19;5138729;27;20264;-71
2022/09/22 10:18:50;;;;;;;5.93;3.27;;;;;;;16.10;62.14;94827.16;5134255;27;20207;-72
2022/09/22 10:21:18;;;;;;;4.40;2.90;;;;;;;17.27;60.94;94840.16;5129750;27;21200;-71
2022/09/22 10:23:46;;;;;;;3.53;2.40;;;;;;;18.19;57.46;94849.19;5129637;27;20298;-71
2022/09/22 10:26:22;;;;;;;2.60;2.40;;;;;;;18.86;54.72;94847.19;5133518;27;20704;-71
2022/09/22 10:29:21;;;;;;;2.83;2.20;;;;;;;19.41;52.44;94843.72;5132131;27;20223;-71
2022/09/22 10:32:06;;;;;;;2.53;2.07;;;;;;;20.27;51.21;94849.44;5122860;27;20207;-70
2022/09/22 10:34:36;;;;;;;4.30;2.40;;;;;;;19.72;50.52;94839.13;5129692;27;20195;-72
2022/09/22 10:37:09;;;;;;;2.67;2.30;;;;;;;19.60;51.66;94839.44;5133206;27;20206;-71
2022/09/22 10:39:43;;;;;;;3.17;2.10;;;;;;;19.71;51.54;94850.75;5127574;27;20194;-72
2022/09/22 10:42:19;;;;;;;2.38;2.00;;;;;;;19.62;47.60;94850.50;5133812;27;20201;-72
2022/09/22 10:44:46;;;;;;;4.88;2.15;;;;;;;19.83;48.37;94840.66;5132173;27;20195;-72
2022/09/22 10:47:25;;;;;;;5.22;2.50;;;;;;;19.70;49.90;94839.41;5131475;27;20206;-79
2022/09/22 10:50:18;;;;;;;2.45;2.25;;;;;;;18.95;51.15;94835.06;5128855;27;21319;-71
2022/09/22 10:52:53;;;;;;;2.50;2.30;;;;;;;18.83;52.45;94831.91;5133286;27;20238;-71
2022/09/22 10:55:29;;;;;;;3.55;2.60;;;;;;;18.58;53.30;94824.03;5135190;27;20203;-70
2022/09/22 10:58:35;;;;;;;2.97;2.00;;;;;;;18.72;52.28;94827.72;5117183;27;20238;-74
2022/09/22 11:01:21;;;;;;;2.95;2.00;;;;;;;19.10;51.73;94819.25;5125986;27;20219;-73
2022/09/22 11:04:06;;;;;;;1.88;1.77;;;;;;;19.19;50.04;94814.22;5135225;27;20334;-73
2022/09/22 11:12:41;;;;;;;1.63;1.52;;;;;;;20.20;44.70;94816.47;5137451;27;20202;-74
2022/09/22 11:15:21;;;;;;;1.50;1.40;;;;;;;21.17;42.52;94817.31;5132813;27;20334;-74
2022/09/22 11:18:11;;;;;;;2.13;1.90;;;;;;;21.87;38.60;94815.75;5137214;27;20207;-78
2022/09/22 11:20:39;;;;;;;1.80;1.67;;;;;;;22.13;38.36;94814.38;5134125;27;20198;-76
2022/09/22 11:23:42;;;;;;;1.60;1.50;;;;;;;22.24;35.87;94815.03;5129957;27;20206;-75
2022/09/22 11:26:32;;;;;;;2.45;1.60;;;;;;;22.02;37.55;94800.47;5125696;27;20198;-74
2022/09/22 11:29:22;;;;;;;1.85;1.73;;;;;;;21.10;43.05;94801.78;5131341;27;20211;-73
2022/09/22 11:32:00;;;;;;;2.95;1.80;;;;;;;20.78;41.43;94804.16;5118906;27;20222;-71
2022/09/22 11:34:46;;;;;;;2.63;1.92;;;;;;;20.25;44.03;94809.34;5133408;27;20198;-79
2022/09/22 11:37:27;;;;;;;2.85;2.03;;;;;;;19.37;46.77;94807.56;5133716;27;20210;-74
2022/09/22 11:40:18;;;;;;;2.05;1.85;;;;;;;18.38;50.68;94806.34;5142339;27;20205;-74
2022/09/22 11:42:55;;;;;;;2.63;2.40;;;;;;;17.87;53.20;94812.56;5135229;27;20198;-74
2022/09/22 11:45:43;;;;;;;4.03;2.53;;;;;;;17.32;55.80;94805.22;5144671;27;20206;-74
2022/09/22 11:48:27;;;;;;;4.83;2.40;;;;;;;16.56;58.16;94804.75;5132712;27;20196;-73
2022/09/22 11:51:24;;;;;;;5.73;2.60;;;;;;;15.75;61.94;94797.94;5135832;27;20237;-73
2022/09/22 11:54:13;;;;;;;3.33;2.53;;;;;;;15.85;60.84;94792.78;5133447;27;20306;-73
2022/09/22 11:56:43;;;;;;;5.00;2.83;;;;;;;15.94;59.85;94787.91;5133712;27;20209;-74
2022/09/22 11:59:26;;;;;;;4.00;3.03;;;;;;;16.00;59.94;94795.56;5136588;27;20815;-74
2022/09/22 12:01:56;;;;;;;3.00;2.40;;;;;;;16.10;59.32;94787.03;5139963;27;20200;-74
2022/09/22 12:04:32;;;;;;;2.53;2.20;;;;;;;16.70;57.78;94794.63;5135815;27;20195;-74